sensor_id;sensor_type;location;lat;lon;timestamp;pressure;altitude;pressure_sealevel;temperature;humidity
46211;BME280;52144;48.040;-1.594;2023-03-22T00:01:27;100657.09;;;13.97;97.03
46211;BME280;52144;48.040;-1.594;2023-03-22T00:03:56;100647.88;;;13.73;98.49
46211;BME280;52144;48.040;-1.594;2023-03-22T00:06:25;100654.22;;;13.86;98.73
46211;BME280;52144;48.040;-1.594;2023-03-22T00:08:53;100654.47;;;13.81;97.87
46211;BME280;52144;48.040;-1.594;2023-03-22T00:11:22;100648.69;;;14.18;96.50
46211;BME280;52144;48.040;-1.594;2023-03-22T00:13:51;100644.22;;;13.74;99.28
46211;BME280;52144;48.040;-1.594;2023-03-22T00:16:20;100632.03;;;13.98;97.12
46211;BME280;52144;48.040;-1.594;2023-03-22T00:18:49;100642.63;;;13.25;100.00
46211;BME280;52144;48.040;-1.594;2023-03-22T00:21:17;100644.16;;;13.45;100.00
46211;BME280;52144;48.040;-1.594;2023-03-22T00:23:44;100634.97;;;13.79;98.26
46211;BME280;52144;48.040;-1.594;2023-03-22T00:26:12;100627.25;;;14.18;95.97
46211;BME280;52144;48.040;-1.594;2023-03-22T00:28:41;100635.66;;;13.83;97.30
46211;BME280;52144;48.040;-1.594;2023-03-22T00:31:09;100635.41;;;13.72;97.74
46211;BME280;52144;48.040;-1.594;2023-03-22T00:33:39;100626.38;;;14.03;96.37
46211;BME280;52144;48.040;-1.594;2023-03-22T00:36:09;100624.00;;;13.84;97.58
46211;BME280;52144;48.040;-1.594;2023-03-22T00:38:37;100622.84;;;13.88;96.57
46211;BME280;52144;48.040;-1.594;2023-03-22T00:41:10;100609.72;;;13.39;100.00
46211;BME280;52144;48.040;-1.594;2023-03-22T00:43:39;100604.66;;;13.79;98.17
46211;BME280;52144;48.040;-1.594;2023-03-22T00:46:07;100603.81;;;14.07;96.33
46211;BME280;52144;48.040;-1.594;2023-03-22T00:48:36;100602.47;;;14.00;96.44
46211;BME280;52144;48.040;-1.594;2023-03-22T00:51:06;100603.81;;;14.07;96.90
46211;BME280;52144;48.040;-1.594;2023-03-22T00:53:34;100605.03;;;14.16;96.04
46211;BME280;52144;48.040;-1.594;2023-03-22T00:56:03;100591.00;;;13.53;99.59
46211;BME280;52144;48.040;-1.594;2023-03-22T00:58:32;100590.38;;;13.64;99.40
46211;BME280;52144;48.040;-1.594;2023-03-22T01:00:59;100589.63;;;13.76;99.27
46211;BME280;52144;48.040;-1.594;2023-03-22T01:03:27;100580.53;;;13.64;99.40
46211;BME280;52144;48.040;-1.594;2023-03-22T01:05:55;100576.78;;;13.53;100.00
46211;BME280;52144;48.040;-1.594;2023-03-22T01:08:24;100568.31;;;13.89;98.30
46211;BME280;52144;48.040;-1.594;2023-03-22T01:10:59;100552.69;;;13.67;99.58
46211;BME280;52144;48.040;-1.594;2023-03-22T01:13:27;100561.03;;;13.91;97.89
46211;BME280;52144;48.040;-1.594;2023-03-22T01:15:55;100558.06;;;14.10;97.71
46211;BME280;52144;48.040;-1.594;2023-03-22T01:18:23;100560.34;;;14.16;96.16
46211;BME280;52144;48.040;-1.594;2023-03-22T01:20:51;100546.69;;;14.21;96.12
46211;BME280;52144;48.040;-1.594;2023-03-22T01:23:18;100551.31;;;13.90;97.50
46211;BME280;52144;48.040;-1.594;2023-03-22T01:25:47;100541.53;;;13.75;99.46
46211;BME280;52144;48.040;-1.594;2023-03-22T01:28:15;100545.34;;;14.14;96.67
46211;BME280;52144;48.040;-1.594;2023-03-22T01:30:43;100537.69;;;13.93;97.36
46211;BME280;52144;48.040;-1.594;2023-03-22T01:33:11;100535.56;;;13.70;99.79
46211;BME280;52144;48.040;-1.594;2023-03-22T01:35:39;100535.88;;;13.79;96.89
46211;BME280;52144;48.040;-1.594;2023-03-22T01:38:06;100532.16;;;13.96;97.87
46211;BME280;52144;48.040;-1.594;2023-03-22T01:40:34;100521.53;;;14.09;95.94
46211;BME280;52144;48.040;-1.594;2023-03-22T01:43:09;100515.38;;;14.21;95.29
46211;BME280;52144;48.040;-1.594;2023-03-22T01:45:40;100508.81;;;14.13;96.11
46211;BME280;52144;48.040;-1.594;2023-03-22T01:48:13;100516.09;;;13.82;98.40
46211;BME280;52144;48.040;-1.594;2023-03-22T01:50:45;100502.56;;;13.98;97.15
46211;BME280;52144;48.040;-1.594;2023-03-22T01:53:15;100500.03;;;13.96;97.59
46211;BME280;52144;48.040;-1.594;2023-03-22T01:55:50;100493.50;;;13.72;98.49
46211;BME280;52144;48.040;-1.594;2023-03-22T01:58:19;100491.41;;;13.91;96.98
46211;BME280;52144;48.040;-1.594;2023-03-22T02:00:48;100484.44;;;13.74;98.23
46211;BME280;52144;48.040;-1.594;2023-03-22T02:03:21;100479.75;;;13.92;96.84
46211;BME280;52144;48.040;-1.594;2023-03-22T02:05:53;100478.03;;;13.77;97.81
46211;BME280;52144;48.040;-1.594;2023-03-22T02:08:21;100476.78;;;13.39;100.00
46211;BME280;52144;48.040;-1.594;2023-03-22T02:10:49;100472.00;;;13.73;98.27
46211;BME280;52144;48.040;-1.594;2023-03-22T02:13:41;100475.16;;;13.65;98.39
46211;BME280;52144;48.040;-1.594;2023-03-22T02:16:23;100472.09;;;13.86;97.33
46211;BME280;52144;48.040;-1.594;2023-03-22T02:19:09;100476.78;;;13.54;98.80
46211;BME280;52144;48.040;-1.594;2023-03-22T02:28:16;100441.22;;;13.80;96.92
46211;BME280;52144;48.040;-1.594;2023-03-22T02:37:03;100438.53;;;13.80;97.69
46211;BME280;52144;48.040;-1.594;2023-03-22T02:39:41;100422.47;;;13.66;98.25
46211;BME280;52144;48.040;-1.594;2023-03-22T02:42:22;100429.44;;;13.83;96.98
46211;BME280;52144;48.040;-1.594;2023-03-22T02:44:57;100426.41;;;14.02;96.02
46211;BME280;52144;48.040;-1.594;2023-03-22T02:47:34;100414.69;;;13.90;98.12
46211;BME280;52144;48.040;-1.594;2023-03-22T02:50:09;100423.63;;;13.76;99.01
46211;BME280;52144;48.040;-1.594;2023-03-22T02:52:43;100420.91;;;13.91;97.22
46211;BME280;52144;48.040;-1.594;2023-03-22T02:55:17;100424.00;;;14.12;96.18
46211;BME280;52144;48.040;-1.594;2023-03-22T02:57:51;100411.59;;;14.11;95.79
46211;BME280;52144;48.040;-1.594;2023-03-22T03:00:20;100418.75;;;13.54;98.88
46211;BME280;52144;48.040;-1.594;2023-03-22T03:02:51;100417.63;;;13.44;99.81
46211;BME280;52144;48.040;-1.594;2023-03-22T03:05:20;100419.53;;;13.98;97.18
46211;BME280;52144;48.040;-1.594;2023-03-22T03:07:51;100412.00;;;14.04;96.68
46211;BME280;52144;48.040;-1.594;2023-03-22T03:10:22;100391.22;;;13.67;98.77
46211;BME280;52144;48.040;-1.594;2023-03-22T03:12:51;100405.97;;;14.01;96.22
46211;BME280;52144;48.040;-1.594;2023-03-22T03:15:20;100397.81;;;13.61;97.94
46211;BME280;52144;48.040;-1.594;2023-03-22T03:18:00;100399.34;;;14.07;96.50
46211;BME280;52144;48.040;-1.594;2023-03-22T03:20:42;100399.03;;;13.84;97.02
46211;BME280;52144;48.040;-1.594;2023-03-22T03:23:20;100395.66;;;13.95;96.68
46211;BME280;52144;48.040;-1.594;2023-03-22T03:25:57;100396.34;;;14.11;96.44
46211;BME280;52144;48.040;-1.594;2023-03-22T03:28:34;100389.88;;;14.28;94.90
46211;BME280;52144;48.040;-1.594;2023-03-22T03:31:17;100390.50;;;14.19;94.88
46211;BME280;52144;48.040;-1.594;2023-03-22T03:33:54;100387.75;;;13.79;97.25
46211;BME280;52144;48.040;-1.594;2023-03-22T03:36:25;100393.78;;;14.10;96.66
46211;BME280;52144;48.040;-1.594;2023-03-22T03:38:55;100405.00;;;14.29;95.11
46211;BME280;52144;48.040;-1.594;2023-03-22T03:41:27;100399.59;;;13.75;98.30
46211;BME280;52144;48.040;-1.594;2023-03-22T03:43:57;100397.34;;;13.54;99.26
46211;BME280;52144;48.040;-1.594;2023-03-22T03:46:26;100397.88;;;14.15;93.54
46211;BME280;52144;48.040;-1.594;2023-03-22T03:48:56;100402.06;;;13.78;96.41
46211;BME280;52144;48.040;-1.594;2023-03-22T03:51:25;100398.47;;;14.06;96.11
46211;BME280;52144;48.040;-1.594;2023-03-22T03:53:53;100395.78;;;13.79;98.02
46211;BME280;52144;48.040;-1.594;2023-03-22T03:56:21;100385.50;;;14.27;94.84
46211;BME280;52144;48.040;-1.594;2023-03-22T03:58:51;100380.63;;;14.19;95.48
46211;BME280;52144;48.040;-1.594;2023-03-22T04:01:19;100387.34;;;14.12;96.40
46211;BME280;52144;48.040;-1.594;2023-03-22T04:03:46;100384.16;;;14.20;96.66
46211;BME280;52144;48.040;-1.594;2023-03-22T04:06:16;100382.47;;;14.19;96.30
46211;BME280;52144;48.040;-1.594;2023-03-22T04:08:44;100381.03;;;14.13;97.91
46211;BME280;52144;48.040;-1.594;2023-03-22T04:11:11;100380.06;;;13.87;98.22
46211;BME280;52144;48.040;-1.594;2023-03-22T04:13:39;100379.25;;;13.72;99.80
46211;BME280;52144;48.040;-1.594;2023-03-22T04:16:08;100381.94;;;13.99;98.57
46211;BME280;52144;48.040;-1.594;2023-03-22T04:18:36;100374.13;;;14.23;97.42
46211;BME280;52144;48.040;-1.594;2023-03-22T04:21:05;100377.75;;;14.22;97.83
46211;BME280;52144;48.040;-1.594;2023-03-22T04:23:33;100376.66;;;13.71;100.00
46211;BME280;52144;48.040;-1.594;2023-03-22T04:26:00;100378.09;;;14.03;98.40
46211;BME280;52144;48.040;-1.594;2023-03-22T04:28:29;100376.72;;;13.83;99.20
46211;BME280;52144;48.040;-1.594;2023-03-22T04:30:59;100381.94;;;13.99;99.46
46211;BME280;52144;48.040;-1.594;2023-03-22T04:33:30;100380.94;;;14.15;98.94
46211;BME280;52144;48.040;-1.594;2023-03-22T04:36:05;100373.91;;;13.99;99.42
46211;BME280;52144;48.040;-1.594;2023-03-22T04:38:35;100380.06;;;13.87;99.24
46211;BME280;52144;48.040;-1.594;2023-03-22T04:41:05;100371.03;;;14.02;99.79
46211;BME280;52144;48.040;-1.594;2023-03-22T04:43:33;100377.38;;;14.14;98.81
46211;BME280;52144;48.040;-1.594;2023-03-22T04:46:01;100371.53;;;14.22;97.75
46211;BME280;52144;48.040;-1.594;2023-03-22T04:48:30;100378.47;;;13.84;100.00
46211;BME280;52144;48.040;-1.594;2023-03-22T04:50:58;100368.56;;;13.99;99.15
46211;BME280;52144;48.040;-1.594;2023-03-22T04:53:29;100373.34;;;14.21;99.03
46211;BME280;52144;48.040;-1.594;2023-03-22T04:55:57;100366.44;;;14.04;99.47
46211;BME280;52144;48.040;-1.594;2023-03-22T04:58:25;100368.06;;;14.07;99.79
46211;BME280;52144;48.040;-1.594;2023-03-22T05:00:53;100367.53;;;14.42;97.62
46211;BME280;52144;48.040;-1.594;2023-03-22T05:03:21;100371.94;;;14.16;99.98
46211;BME280;52144;48.040;-1.594;2023-03-22T05:05:51;100365.91;;;13.85;100.00
46211;BME280;52144;48.040;-1.594;2023-03-22T05:08:20;100381.50;;;14.20;100.00
46211;BME280;52144;48.040;-1.594;2023-03-22T05:10:48;100374.97;;;14.24;100.00
46211;BME280;52144;48.040;-1.594;2023-03-22T05:13:16;100374.78;;;14.27;100.00
46211;BME280;52144;48.040;-1.594;2023-03-22T05:15:44;100369.84;;;14.34;100.00
46211;BME280;52144;48.040;-1.594;2023-03-22T05:18:13;100359.72;;;14.12;100.00
46211;BME280;52144;48.040;-1.594;2023-03-22T05:20:41;100359.00;;;13.95;100.00
46211;BME280;52144;48.040;-1.594;2023-03-22T05:23:10;100358.34;;;13.92;100.00
46211;BME280;52144;48.040;-1.594;2023-03-22T05:25:39;100361.84;;;14.07;100.00
46211;BME280;52144;48.040;-1.594;2023-03-22T05:28:10;100364.88;;;14.15;100.00
46211;BME280;52144;48.040;-1.594;2023-03-22T05:30:40;100359.47;;;13.60;100.00
46211;BME280;52144;48.040;-1.594;2023-03-22T05:33:08;100349.81;;;13.99;100.00
46211;BME280;52144;48.040;-1.594;2023-03-22T05:35:38;100351.81;;;14.23;100.00
46211;BME280;52144;48.040;-1.594;2023-03-22T05:38:07;100339.47;;;14.20;100.00
46211;BME280;52144;48.040;-1.594;2023-03-22T05:40:36;100326.75;;;13.97;100.00
46211;BME280;52144;48.040;-1.594;2023-03-22T05:43:04;100340.94;;;14.12;100.00
46211;BME280;52144;48.040;-1.594;2023-03-22T05:45:34;100331.69;;;13.90;100.00
46211;BME280;52144;48.040;-1.594;2023-03-22T05:48:02;100336.72;;;13.95;100.00
46211;BME280;52144;48.040;-1.594;2023-03-22T05:50:31;100331.38;;;13.95;100.00
46211;BME280;52144;48.040;-1.594;2023-03-22T05:52:59;100329.63;;;13.94;100.00
46211;BME280;52144;48.040;-1.594;2023-03-22T05:55:27;100318.22;;;13.21;100.00
46211;BME280;52144;48.040;-1.594;2023-03-22T05:57:59;100325.34;;;13.91;100.00
46211;BME280;52144;48.040;-1.594;2023-03-22T06:00:27;100333.72;;;13.99;100.00
46211;BME280;52144;48.040;-1.594;2023-03-22T06:02:57;100324.69;;;13.88;100.00
46211;BME280;52144;48.040;-1.594;2023-03-22T06:05:29;100327.22;;;14.03;100.00
46211;BME280;52144;48.040;-1.594;2023-03-22T06:07:58;100319.28;;;13.75;100.00
46211;BME280;52144;48.040;-1.594;2023-03-22T06:10:26;100324.34;;;14.07;100.00
46211;BME280;52144;48.040;-1.594;2023-03-22T06:12:54;100322.72;;;13.77;100.00
46211;BME280;52144;48.040;-1.594;2023-03-22T06:15:23;100307.56;;;13.90;100.00
46211;BME280;52144;48.040;-1.594;2023-03-22T06:17:51;100314.66;;;14.04;100.00
46211;BME280;52144;48.040;-1.594;2023-03-22T06:20:18;100311.13;;;14.03;100.00
46211;BME280;52144;48.040;-1.594;2023-03-22T06:22:46;100303.97;;;13.50;100.00
46211;BME280;52144;48.040;-1.594;2023-03-22T06:25:15;100320.97;;;13.90;100.00
46211;BME280;52144;48.040;-1.594;2023-03-22T06:27:43;100311.97;;;13.64;100.00
46211;BME280;52144;48.040;-1.594;2023-03-22T06:30:11;100312.66;;;14.08;100.00
46211;BME280;52144;48.040;-1.594;2023-03-22T06:32:40;100316.63;;;13.60;100.00
46211;BME280;52144;48.040;-1.594;2023-03-22T06:35:08;100327.16;;;13.49;100.00
46211;BME280;52144;48.040;-1.594;2023-03-22T06:37:36;100340.66;;;13.62;100.00
46211;BME280;52144;48.040;-1.594;2023-03-22T06:40:05;100350.88;;;13.55;100.00
46211;BME280;52144;48.040;-1.594;2023-03-22T06:42:34;100372.47;;;13.23;100.00
46211;BME280;52144;48.040;-1.594;2023-03-22T06:45:03;100379.25;;;13.72;100.00
46211;BME280;52144;48.040;-1.594;2023-03-22T06:47:31;100370.72;;;13.80;100.00
46211;BME280;52144;48.040;-1.594;2023-03-22T06:50:00;100366.94;;;13.55;100.00
46211;BME280;52144;48.040;-1.594;2023-03-22T06:52:27;100362.31;;;13.72;100.00
46211;BME280;52144;48.040;-1.594;2023-03-22T06:54:55;100366.34;;;13.64;100.00
46211;BME280;52144;48.040;-1.594;2023-03-22T06:57:23;100360.19;;;13.77;100.00
46211;BME280;52144;48.040;-1.594;2023-03-22T06:59:51;100355.91;;;13.74;100.00
46211;BME280;52144;48.040;-1.594;2023-03-22T07:02:19;100346.88;;;13.48;100.00
46211;BME280;52144;48.040;-1.594;2023-03-22T07:04:47;100360.81;;;13.24;100.00
46211;BME280;52144;48.040;-1.594;2023-03-22T07:07:16;100380.69;;;13.63;100.00
46211;BME280;52144;48.040;-1.594;2023-03-22T07:09:43;100374.97;;;13.41;100.00
46211;BME280;52144;48.040;-1.594;2023-03-22T07:12:11;100376.72;;;13.83;100.00
46211;BME280;52144;48.040;-1.594;2023-03-22T07:14:39;100383.22;;;13.79;100.00
46211;BME280;52144;48.040;-1.594;2023-03-22T07:17:07;100384.69;;;13.71;100.00
46211;BME280;52144;48.040;-1.594;2023-03-22T07:19:35;100377.44;;;13.73;100.00
46211;BME280;52144;48.040;-1.594;2023-03-22T07:22:02;100370.06;;;13.76;100.00
46211;BME280;52144;48.040;-1.594;2023-03-22T07:24:32;100368.06;;;13.80;100.00
46211;BME280;52144;48.040;-1.594;2023-03-22T07:27:02;100371.88;;;14.30;100.00
46211;BME280;52144;48.040;-1.594;2023-03-22T07:29:30;100371.59;;;13.80;100.00
46211;BME280;52144;48.040;-1.594;2023-03-22T07:31:58;100370.25;;;13.73;100.00
46211;BME280;52144;48.040;-1.594;2023-03-22T07:34:26;100370.72;;;13.65;100.00
46211;BME280;52144;48.040;-1.594;2023-03-22T07:36:54;100369.16;;;14.17;100.00
46211;BME280;52144;48.040;-1.594;2023-03-22T07:39:23;100373.03;;;14.26;100.00
46211;BME280;52144;48.040;-1.594;2023-03-22T07:41:54;100372.03;;;14.14;100.00
46211;BME280;52144;48.040;-1.594;2023-03-22T07:44:22;100360.56;;;14.12;100.00
46211;BME280;52144;48.040;-1.594;2023-03-22T07:46:50;100364.03;;;13.73;100.00
46211;BME280;52144;48.040;-1.594;2023-03-22T07:49:18;100369.72;;;13.95;100.00
46211;BME280;52144;48.040;-1.594;2023-03-22T07:51:45;100377.00;;;13.93;100.00
46211;BME280;52144;48.040;-1.594;2023-03-22T07:54:13;100373.28;;;13.81;100.00
46211;BME280;52144;48.040;-1.594;2023-03-22T07:56:59;100375.91;;;14.50;100.00
46211;BME280;52144;48.040;-1.594;2023-03-22T07:59:27;100368.59;;;13.85;100.00
46211;BME280;52144;48.040;-1.594;2023-03-22T08:01:56;100375.41;;;14.31;100.00
46211;BME280;52144;48.040;-1.594;2023-03-22T08:04:24;100378.09;;;14.03;100.00
46211;BME280;52144;48.040;-1.594;2023-03-22T08:06:53;100377.16;;;14.44;100.00
46211;BME280;52144;48.040;-1.594;2023-03-22T08:09:24;100373.28;;;14.63;100.00
46211;BME280;52144;48.040;-1.594;2023-03-22T08:11:52;100373.41;;;14.74;99.61
46211;BME280;52144;48.040;-1.594;2023-03-22T08:14:21;100373.81;;;14.41;100.00
46211;BME280;52144;48.040;-1.594;2023-03-22T08:17:01;100366.19;;;14.35;100.00
46211;BME280;52144;48.040;-1.594;2023-03-22T08:19:29;100366.66;;;14.41;100.00
46211;BME280;52144;48.040;-1.594;2023-03-22T08:21:57;100363.53;;;14.62;100.00
46211;BME280;52144;48.040;-1.594;2023-03-22T08:24:25;100356.78;;;14.42;100.00
46211;BME280;52144;48.040;-1.594;2023-03-22T08:26:53;100358.34;;;14.59;100.00
46211;BME280;52144;48.040;-1.594;2023-03-22T08:29:22;100351.13;;;14.47;100.00
46211;BME280;52144;48.040;-1.594;2023-03-22T08:31:50;100348.38;;;14.61;100.00
46211;BME280;52144;48.040;-1.594;2023-03-22T08:34:18;100348.31;;;14.88;99.16
46211;BME280;52144;48.040;-1.594;2023-03-22T08:36:46;100341.41;;;14.71;99.35
46211;BME280;52144;48.040;-1.594;2023-03-22T08:39:14;100335.59;;;14.52;99.58
46211;BME280;52144;48.040;-1.594;2023-03-22T08:41:42;100347.44;;;14.62;99.45
46211;BME280;52144;48.040;-1.594;2023-03-22T08:44:09;100347.34;;;14.36;99.46
46211;BME280;52144;48.040;-1.594;2023-03-22T08:46:38;100350.03;;;14.76;98.86
46211;BME280;52144;48.040;-1.594;2023-03-22T08:49:06;100348.09;;;14.91;96.78
46211;BME280;52144;48.040;-1.594;2023-03-22T08:51:35;100351.53;;;14.68;97.49
46211;BME280;52144;48.040;-1.594;2023-03-22T08:54:03;100348.94;;;14.92;97.54
46211;BME280;52144;48.040;-1.594;2023-03-22T08:56:31;100346.69;;;14.73;96.95
46211;BME280;52144;48.040;-1.594;2023-03-22T08:59:03;100356.22;;;14.24;100.00
46211;BME280;52144;48.040;-1.594;2023-03-22T09:01:31;100355.09;;;14.54;99.92
46211;BME280;52144;48.040;-1.594;2023-03-22T09:04:00;100346.59;;;14.74;98.17
46211;BME280;52144;48.040;-1.594;2023-03-22T09:06:29;100343.34;;;14.69;96.94
46211;BME280;52144;48.040;-1.594;2023-03-22T09:08:57;100341.50;;;14.57;97.99
46211;BME280;52144;48.040;-1.594;2023-03-22T09:11:25;100338.78;;;14.04;100.00
46211;BME280;52144;48.040;-1.594;2023-03-22T09:13:53;100333.66;;;14.54;99.19
46211;BME280;52144;48.040;-1.594;2023-03-22T09:16:20;100332.22;;;15.01;96.40
46211;BME280;52144;48.040;-1.594;2023-03-22T09:18:48;100349.38;;;14.98;96.45
46211;BME280;52144;48.040;-1.594;2023-03-22T09:21:17;100342.50;;;15.07;95.60
46211;BME280;52144;48.040;-1.594;2023-03-22T09:23:47;100339.88;;;14.54;96.98
46211;BME280;52144;48.040;-1.594;2023-03-22T09:26:15;100343.06;;;14.87;96.25
46211;BME280;52144;48.040;-1.594;2023-03-22T09:28:43;100343.88;;;15.25;95.59
46211;BME280;52144;48.040;-1.594;2023-03-22T09:31:12;100336.72;;;15.13;95.84
46211;BME280;52144;48.040;-1.594;2023-03-22T09:33:40;100327.50;;;14.39;98.75
46211;BME280;52144;48.040;-1.594;2023-03-22T09:36:09;100331.56;;;15.10;95.93
46211;BME280;52144;48.040;-1.594;2023-03-22T09:38:39;100319.13;;;14.96;95.10
46211;BME280;52144;48.040;-1.594;2023-03-22T09:41:11;100330.69;;;14.58;96.30
46211;BME280;52144;48.040;-1.594;2023-03-22T09:43:45;100326.22;;;14.72;96.90
46211;BME280;52144;48.040;-1.594;2023-03-22T09:46:16;100332.84;;;14.66;98.68
46211;BME280;52144;48.040;-1.594;2023-03-22T09:48:47;100328.38;;;14.39;99.41
46211;BME280;52144;48.040;-1.594;2023-03-22T09:51:26;100334.56;;;14.67;98.13
46211;BME280;52144;48.040;-1.594;2023-03-22T09:53:57;100335.44;;;14.68;99.63
46211;BME280;52144;48.040;-1.594;2023-03-22T09:56:26;100327.06;;;14.32;100.00
46211;BME280;52144;48.040;-1.594;2023-03-22T09:59:03;100320.19;;;14.28;100.00
46211;BME280;52144;48.040;-1.594;2023-03-22T10:01:41;100329.22;;;14.27;100.00
46211;BME280;52144;48.040;-1.594;2023-03-22T10:04:37;100327.88;;;13.80;100.00
46211;BME280;52144;48.040;-1.594;2023-03-22T10:07:15;100340.00;;;14.13;100.00
46211;BME280;52144;48.040;-1.594;2023-03-22T10:09:56;100340.56;;;14.71;100.00
46211;BME280;52144;48.040;-1.594;2023-03-22T10:12:28;100321.84;;;14.43;100.00
46211;BME280;52144;48.040;-1.594;2023-03-22T10:15:03;100330.41;;;14.36;100.00
46211;BME280;52144;48.040;-1.594;2023-03-22T10:17:35;100326.97;;;14.34;100.00
46211;BME280;52144;48.040;-1.594;2023-03-22T10:20:06;100337.78;;;13.92;100.00
46211;BME280;52144;48.040;-1.594;2023-03-22T10:22:37;100329.75;;;14.32;100.00
46211;BME280;52144;48.040;-1.594;2023-03-22T10:25:08;100317.53;;;14.28;100.00
46211;BME280;52144;48.040;-1.594;2023-03-22T10:27:41;100331.88;;;14.67;100.00
46211;BME280;52144;48.040;-1.594;2023-03-22T10:30:19;100317.75;;;14.25;100.00
46211;BME280;52144;48.040;-1.594;2023-03-22T10:32:51;100314.00;;;14.28;100.00
46211;BME280;52144;48.040;-1.594;2023-03-22T10:35:24;100303.88;;;14.58;100.00
46211;BME280;52144;48.040;-1.594;2023-03-22T10:37:54;100308.22;;;14.47;100.00
46211;BME280;52144;48.040;-1.594;2023-03-22T10:40:26;100306.09;;;14.52;100.00
46211;BME280;52144;48.040;-1.594;2023-03-22T10:42:58;100306.47;;;14.60;100.00
46211;BME280;52144;48.040;-1.594;2023-03-22T10:45:27;100302.38;;;14.93;100.00
46211;BME280;52144;48.040;-1.594;2023-03-22T10:48:00;100298.44;;;14.33;100.00
46211;BME280;52144;48.040;-1.594;2023-03-22T10:50:32;100289.03;;;14.40;100.00
46211;BME280;52144;48.040;-1.594;2023-03-22T10:53:04;100285.72;;;13.96;100.00
46211;BME280;52144;48.040;-1.594;2023-03-22T10:55:38;100299.84;;;14.25;100.00
46211;BME280;52144;48.040;-1.594;2023-03-22T10:58:14;100299.31;;;14.33;100.00
46211;BME280;52144;48.040;-1.594;2023-03-22T11:00:43;100295.75;;;14.33;100.00
46211;BME280;52144;48.040;-1.594;2023-03-22T11:03:25;100297.41;;;14.35;100.00
46211;BME280;52144;48.040;-1.594;2023-03-22T11:05:58;100297.50;;;14.34;100.00
46211;BME280;52144;48.040;-1.594;2023-03-22T11:08:25;100297.16;;;14.38;100.00
46211;BME280;52144;48.040;-1.594;2023-03-22T11:10:55;100289.66;;;14.31;100.00
46211;BME280;52144;48.040;-1.594;2023-03-22T11:13:26;100297.59;;;14.32;100.00
46211;BME280;52144;48.040;-1.594;2023-03-22T11:15:57;100290.75;;;14.54;100.00
46211;BME280;52144;48.040;-1.594;2023-03-22T11:18:29;100294.13;;;14.17;100.00
46211;BME280;52144;48.040;-1.594;2023-03-22T11:20:59;100292.97;;;14.21;100.00
46211;BME280;52144;48.040;-1.594;2023-03-22T11:23:31;100297.81;;;14.29;100.00
46211;BME280;52144;48.040;-1.594;2023-03-22T11:26:05;100304.06;;;14.55;100.00
46211;BME280;52144;48.040;-1.594;2023-03-22T11:28:36;100297.75;;;14.16;100.00
46211;BME280;52144;48.040;-1.594;2023-03-22T11:31:06;100288.34;;;14.11;100.00
46211;BME280;52144;48.040;-1.594;2023-03-22T11:33:35;100299.31;;;14.33;100.00
46211;BME280;52144;48.040;-1.594;2023-03-22T11:36:14;100304.25;;;14.39;100.00
46211;BME280;52144;48.040;-1.594;2023-03-22T11:38:42;100306.56;;;14.18;100.00
46211;BME280;52144;48.040;-1.594;2023-03-22T11:41:20;100297.91;;;14.15;100.00
46211;BME280;52144;48.040;-1.594;2023-03-22T11:43:51;100295.00;;;14.18;100.00
46211;BME280;52144;48.040;-1.594;2023-03-22T11:46:20;100294.28;;;14.41;100.00
46211;BME280;52144;48.040;-1.594;2023-03-22T11:48:50;100293.13;;;14.45;100.00
46211;BME280;52144;48.040;-1.594;2023-03-22T11:51:25;100283.19;;;14.20;100.00
46211;BME280;52144;48.040;-1.594;2023-03-22T11:53:55;100287.94;;;14.42;100.00
46211;BME280;52144;48.040;-1.594;2023-03-22T11:56:28;100282.53;;;14.57;100.00
46211;BME280;52144;48.040;-1.594;2023-03-22T11:59:00;100275.72;;;14.38;100.00
46211;BME280;52144;48.040;-1.594;2023-03-22T12:01:34;100270.16;;;14.41;100.00
46211;BME280;52144;48.040;-1.594;2023-03-22T12:04:07;100277.66;;;14.36;100.00
46211;BME280;52144;48.040;-1.594;2023-03-22T12:06:37;100272.19;;;14.51;100.00
46211;BME280;52144;48.040;-1.594;2023-03-22T12:09:11;100265.84;;;14.26;100.00
46211;BME280;52144;48.040;-1.594;2023-03-22T12:11:49;100266.28;;;13.80;100.00
46211;BME280;52144;48.040;-1.594;2023-03-22T12:14:21;100261.84;;;14.59;100.00
46211;BME280;52144;48.040;-1.594;2023-03-22T12:16:55;100269.34;;;14.79;100.00
46211;BME280;52144;48.040;-1.594;2023-03-22T12:19:37;100267.16;;;14.33;100.00
46211;BME280;52144;48.040;-1.594;2023-03-22T12:22:10;100263.41;;;14.36;100.00
46211;BME280;52144;48.040;-1.594;2023-03-22T12:24:39;100258.66;;;14.14;100.00
46211;BME280;52144;48.040;-1.594;2023-03-22T12:27:14;100255.13;;;14.39;100.00
46211;BME280;52144;48.040;-1.594;2023-03-22T12:29:46;100267.72;;;14.77;100.00
46211;BME280;52144;48.040;-1.594;2023-03-22T12:32:21;100255.81;;;14.55;100.00
46211;BME280;52144;48.040;-1.594;2023-03-22T12:34:52;100249.97;;;14.10;100.00
46211;BME280;52144;48.040;-1.594;2023-03-22T12:37:35;100249.94;;;14.63;100.00
46211;BME280;52144;48.040;-1.594;2023-03-22T12:40:06;100245.63;;;14.73;100.00
46211;BME280;52144;48.040;-1.594;2023-03-22T12:42:50;100246.38;;;14.75;100.00
46211;BME280;52144;48.040;-1.594;2023-03-22T12:45:26;100245.88;;;14.70;100.00
46211;BME280;52144;48.040;-1.594;2023-03-22T12:47:59;100252.59;;;14.50;100.00
46211;BME280;52144;48.040;-1.594;2023-03-22T12:50:33;100254.47;;;14.22;100.00
46211;BME280;52144;48.040;-1.594;2023-03-22T12:53:02;100243.78;;;14.35;100.00
46211;BME280;52144;48.040;-1.594;2023-03-22T12:55:33;100231.59;;;14.57;100.00
46211;BME280;52144;48.040;-1.594;2023-03-22T12:58:04;100225.88;;;14.49;100.00
46211;BME280;52144;48.040;-1.594;2023-03-22T13:00:35;100225.34;;;14.43;100.00
46211;BME280;52144;48.040;-1.594;2023-03-22T13:03:07;100219.63;;;14.22;100.00
46211;BME280;52144;48.040;-1.594;2023-03-22T13:05:47;100226.53;;;14.39;100.00